Time;durP1;ratioP1;P1;durP2;ratioP2;P2;SDS_P1;SDS_P2;PMS_P1;PMS_P2;Temp;Humidity;BMP_temperature;BMP_pressure;BME280_temperature;BME280_humidity;BME280_pressure;Samples;Min_cycle;Max_cycle;Signal;HPM_P1;HPM_P2
2021/10/09 00:03:57;;;;;;;16.37;5.65;;;;;;;3.37;100.00;100675.34;4488994;79;28443;-80
2021/10/09 00:10:02;;;;;;;15.43;6.22;;;;;;;3.38;100.00;100665.05;4487651;79;28562;-79
2021/10/09 00:16:02;;;;;;;14.18;6.00;;;;;;;3.31;100.00;100667.92;4487491;79;28511;-78
2021/10/09 00:22:03;;;;;;;12.78;6.17;;;;;;;3.42;100.00;100654.96;4485836;78;28649;-78
2021/10/09 00:28:05;;;;;;;12.95;6.08;;;;;;;3.27;100.00;100655.40;4486557;78;28522;-78
2021/10/09 00:34:06;;;;;;;12.75;5.53;;;;;;;3.21;100.00;100647.50;4484886;79;28517;-79
2021/10/09 00:40:09;;;;;;;13.62;5.75;;;;;;;3.18;100.00;100647.80;4534725;77;28482;-81
2021/10/09 00:46:11;;;;;;;12.30;5.83;;;;;;;3.05;100.00;100649.94;4378981;80;28556;-77
2021/10/09 00:52:14;;;;;;;12.18;5.95;;;;;;;2.98;100.00;100653.65;4420805;80;28525;-77
2021/10/09 00:58:16;;;;;;;14.68;6.40;;;;;;;3.24;100.00;100655.69;4394664;81;28537;-79
2021/10/09 01:04:18;;;;;;;17.20;6.97;;;;;;;3.08;100.00;100646.16;4391083;81;28591;-81
2021/10/09 01:10:20;;;;;;;15.55;6.47;;;;;;;2.98;100.00;100638.19;4415499;80;28505;-80
2021/10/09 01:16:25;;;;;;;13.08;5.90;;;;;;;2.81;100.00;100641.89;4410692;79;28449;-82
2021/10/09 01:22:26;;;;;;;14.50;6.37;;;;;;;2.73;100.00;100636.47;4401229;79;28464;-80
2021/10/09 01:28:28;;;;;;;12.53;6.08;;;;;;;2.67;100.00;100633.88;4406154;79;28428;-80
2021/10/09 01:34:31;;;;;;;13.25;6.55;;;;;;;2.73;100.00;100628.50;4400785;79;29054;-79
2021/10/09 01:40:34;;;;;;;15.85;6.35;;;;;;;2.73;100.00;100628.50;4389038;80;28579;-78
2021/10/09 01:46:36;;;;;;;14.63;5.95;;;;;;;2.71;100.00;100619.81;4372923;81;28518;-79
2021/10/09 01:52:38;;;;;;;16.00;6.60;;;;;;;2.61;100.00;100617.17;4414448;81;28532;-78
2021/10/09 01:58:40;;;;;;;15.60;6.58;;;;;;;2.56;100.00;100617.59;4410750;80;28577;-79
2021/10/09 02:04:43;;;;;;;15.25;6.92;;;;;;;2.53;100.00;100619.67;4403368;79;28571;-80
2021/10/09 02:10:58;;;;;;;15.15;7.15;;;;;;;2.42;100.00;100615.36;4413587;81;28497;-79
2021/10/09 02:29:27;;;;;;;16.90;6.12;;;;;;;2.32;100.00;100628.13;4400675;79;28480;-81
2021/10/09 02:35:28;;;;;;;16.55;7.92;;;;;;;2.33;100.00;100620.98;4415228;80;28541;-81
2021/10/09 02:41:31;;;;;;;13.62;6.50;;;;;;;2.37;100.00;100621.91;4377965;80;28463;-80
2021/10/09 02:47:33;;;;;;;14.03;6.37;;;;;;;2.27;100.00;100626.87;4368311;80;28556;-80
2021/10/09 02:53:35;;;;;;;12.85;6.65;;;;;;;2.12;100.00;100621.94;4362784;80;28490;-80
2021/10/09 02:59:36;;;;;;;13.05;6.25;;;;;;;2.11;100.00;100621.59;4330904;80;28540;-81
2021/10/09 03:05:38;;;;;;;17.23;7.10;;;;;;;2.09;100.00;100626.20;4354832;81;28459;-79
2021/10/09 03:11:39;;;;;;;14.63;6.92;;;;;;;2.06;100.00;100622.50;4381470;80;28479;-80
2021/10/09 03:17:42;;;;;;;14.90;6.53;;;;;;;1.99;100.00;100642.11;4498605;78;28431;-81
2021/10/09 03:23:43;;;;;;;14.40;6.92;;;;;;;1.81;100.00;100637.91;4520742;77;28463;-80
2021/10/09 03:29:45;;;;;;;13.88;6.95;;;;;;;1.99;100.00;100639.92;4419331;79;28453;-81
2021/10/09 03:35:47;;;;;;;19.77;7.35;;;;;;;1.90;100.00;100645.56;4465084;78;28499;-81
2021/10/09 03:41:55;;;;;;;15.55;6.95;;;;;;;1.82;100.00;100643.56;4489977;78;28523;-81
2021/10/09 03:48:03;;;;;;;14.15;7.50;;;;;;;1.72;100.00;100644.02;4469782;77;28585;-81
2021/10/09 03:53:57;;;;;;;14.03;6.95;;;;;;;1.69;100.00;100646.94;4566848;78;28461;-82
2021/10/09 03:59:59;;;;;;;15.63;7.10;;;;;;;1.64;100.00;100650.84;4571882;77;28465;-82
2021/10/09 04:06:01;;;;;;;14.15;6.78;;;;;;;1.63;100.00;100655.80;4563287;77;28516;-81
2021/10/09 04:12:04;;;;;;;15.38;7.40;;;;;;;1.61;100.00;100653.73;4568630;77;28558;-81
2021/10/09 04:18:06;;;;;;;15.88;7.45;;;;;;;1.65;100.00;100655.64;4544582;78;28492;-81
2021/10/09 04:24:08;;;;;;;16.02;7.05;;;;;;;1.62;100.00;100667.84;4540913;78;28481;-81
2021/10/09 04:30:10;;;;;;;15.03;7.40;;;;;;;1.56;100.00;100673.20;4558721;76;28508;-80
2021/10/09 04:36:12;;;;;;;15.00;7.90;;;;;;;1.59;100.00;100673.42;4568567;77;28444;-80
2021/10/09 04:42:13;;;;;;;16.30;7.87;;;;;;;1.58;100.00;100668.59;4558404;77;28515;-80
2021/10/09 04:48:15;;;;;;;15.58;8.00;;;;;;;1.48;100.00;100679.16;4561703;77;28505;-80
2021/10/09 04:54:18;;;;;;;17.23;7.83;;;;;;;1.48;100.00;100675.19;4524333;77;28507;-83
2021/10/09 05:00:22;;;;;;;13.98;7.40;;;;;;;1.47;100.00;100682.78;4532845;78;28493;-79
2021/10/09 05:06:24;;;;;;;14.58;6.92;;;;;;;1.41;100.00;100691.25;4557820;76;28534;-82
2021/10/09 05:12:25;;;;;;;15.93;8.10;;;;;;;1.38;100.00;100701.62;4562088;78;28441;-81
2021/10/09 05:18:26;;;;;;;17.55;8.63;;;;;;;1.51;100.00;100693.94;4520339;76;28455;-79
2021/10/09 05:24:30;;;;;;;15.95;8.08;;;;;;;1.56;100.00;100702.36;4507592;76;28456;-80
2021/10/09 05:30:33;;;;;;;17.80;7.80;;;;;;;1.62;100.00;100699.66;4582337;76;28461;-80
2021/10/09 05:36:35;;;;;;;15.35;8.08;;;;;;;1.67;100.00;100703.60;4546091;76;28499;-81
2021/10/09 05:42:37;;;;;;;16.80;7.80;;;;;;;1.83;100.00;100706.27;4572419;76;28451;-79
2021/10/09 05:48:40;;;;;;;18.35;9.43;;;;;;;2.08;100.00;100706.78;4566166;76;28510;-80
2021/10/09 06:37:25;;;;;;;17.50;8.08;;;;;;;2.62;100.00;100731.70;4551081;76;28520;-81
2021/10/09 06:45:18;;;;;;;19.12;8.73;;;;;;;2.98;100.00;100747.98;4564733;76;28446;-80
2021/10/09 07:03:43;;;;;;;14.47;8.00;;;;;;;3.10;100.00;100761.12;4534619;76;28519;-83
2021/10/09 07:09:45;;;;;;;20.43;8.73;;;;;;;3.46;100.00;100769.36;4520919;76;28498;-80
2021/10/09 07:15:48;;;;;;;16.82;9.10;;;;;;;3.45;100.00;100773.00;4488538;77;28876;-83
2021/10/09 07:21:50;;;;;;;19.80;9.13;;;;;;;3.70;100.00;100772.07;4499125;77;28518;-81
2021/10/09 07:27:51;;;;;;;18.85;8.63;;;;;;;3.67;100.00;100781.17;4479390;78;28520;-80
2021/10/09 07:33:53;;;;;;;19.30;8.80;;;;;;;3.93;100.00;100788.52;4506580;77;28596;-78
2021/10/09 07:39:54;;;;;;;20.88;9.55;;;;;;;3.97;100.00;100787.74;4517867;77;28542;-84
2021/10/09 07:45:59;;;;;;;22.25;9.38;;;;;;;4.21;100.00;100788.58;4549208;76;28599;-80
2021/10/09 07:52:01;;;;;;;19.20;8.78;;;;;;;4.37;100.00;100789.76;4561880;76;28433;-78
2021/10/09 07:58:05;;;;;;;20.82;8.58;;;;;;;4.55;100.00;100792.50;4537372;76;28524;-79
2021/10/09 08:04:09;;;;;;;17.90;9.35;;;;;;;4.65;100.00;100799.09;4542068;76;28484;-79
2021/10/09 08:10:11;;;;;;;19.05;8.63;;;;;;;4.97;100.00;100790.63;4535476;76;28868;-79
2021/10/09 08:16:12;;;;;;;17.67;9.18;;;;;;;4.95;100.00;100795.28;4516338;76;28514;-83
2021/10/09 08:22:14;;;;;;;15.20;7.80;;;;;;;5.12;100.00;100788.75;4543411;76;28484;-82
2021/10/09 08:40:55;;;;;;;19.40;8.53;;;;;;;5.48;100.00;100788.75;4536036;77;28461;-86
2021/10/09 08:46:56;;;;;;;21.37;8.75;;;;;;;5.49;100.00;100773.56;4502139;76;28461;-86
2021/10/09 08:53:03;;;;;;;16.20;7.83;;;;;;;5.73;100.00;100768.91;4526509;76;28592;-78
2021/10/09 08:59:24;;;;;;;18.35;8.55;;;;;;;5.97;100.00;100765.56;4521791;76;28472;-83
2021/10/09 09:05:40;;;;;;;17.90;8.83;;;;;;;5.97;100.00;100763.38;4508650;76;28483;-80
2021/10/09 09:37:17;;;;;;;16.80;8.25;;;;;;;6.73;91.88;100741.34;4497356;77;28480;-83
2021/10/09 09:43:16;;;;;;;15.83;7.95;;;;;;;6.95;94.97;100742.05;4465196;77;28509;-81
2021/10/09 09:49:18;;;;;;;20.08;8.05;;;;;;;7.05;95.30;100738.39;4458877;78;28525;-86
2021/10/09 09:55:20;;;;;;;17.95;6.92;;;;;;;7.33;87.83;100743.39;4456077;77;28433;-82
2021/10/09 10:01:24;;;;;;;13.05;6.70;;;;;;;7.39;82.33;100731.54;4451042;77;28455;-79
2021/10/09 10:07:26;;;;;;;11.65;6.15;;;;;;;7.58;79.90;100732.69;4458093;78;28466;-83
2021/10/09 10:13:30;;;;;;;13.13;5.87;;;;;;;7.85;79.20;100733.28;4450206;78;28550;-78
2021/10/09 10:19:57;;;;;;;13.22;5.90;;;;;;;7.87;75.51;100725.94;4462968;77;28486;-83
2021/10/09 10:26:23;;;;;;;10.15;5.28;;;;;;;8.18;76.72;100717.12;4458936;77;28488;-77
2021/10/09 10:32:24;;;;;;;11.70;4.90;;;;;;;8.23;70.59;100716.08;4461763;77;28512;-82
2021/10/09 10:38:42;;;;;;;9.30;4.53;;;;;;;8.41;68.93;100709.13;4466029;77;28485;-79
2021/10/09 10:44:53;;;;;;;15.25;5.87;;;;;;;8.36;66.54;100700.79;4504293;78;28470;-83
2021/10/09 10:57:03;;;;;;;9.93;5.05;;;;;;;8.69;63.05;100703.30;4508070;78;28441;-82
2021/10/09 11:03:10;;;;;;;8.98;4.70;;;;;;;8.79;63.21;100694.52;4410707;78;28491;-81
2021/10/09 11:09:11;;;;;;;14.55;4.50;;;;;;;9.19;68.83;100684.97;4503708;78;28538;-81
2021/10/09 11:15:20;;;;;;;6.78;3.60;;;;;;;9.05;60.48;100683.91;4490416;78;28489;-79
2021/10/09 11:21:22;;;;;;;8.45;3.87;;;;;;;9.28;58.47;100691.13;4503119;77;28453;-80
2021/10/09 11:27:30;;;;;;;8.80;3.52;;;;;;;9.58;58.25;100671.53;4503831;77;28517;-81
2021/10/09 11:33:31;;;;;;;9.25;3.83;;;;;;;9.42;55.37;100678.72;4511956;77;28454;-81
2021/10/09 11:39:38;;;;;;;7.50;3.83;;;;;;;9.67;57.71;100662.37;4507598;77;28519;-80
2021/10/09 11:45:48;;;;;;;9.60;3.67;;;;;;;9.63;51.94;100663.24;4487869;76;28445;-79
2021/10/09 11:58:04;;;;;;;9.73;4.22;;;;;;;9.88;53.99;100660.26;4541987;76;28449;-80
2021/10/09 12:04:19;;;;;;;8.63;4.75;;;;;;;9.79;51.05;100655.19;4530287;76;28500;-80
2021/10/09 12:10:20;;;;;;;9.58;4.72;;;;;;;9.93;52.39;100658.36;4520320;76;28448;-80
2021/10/09 12:16:43;;;;;;;11.00;4.75;;;;;;;9.90;51.09;100647.99;4532871;76;28470;-79
2021/10/09 12:22:52;;;;;;;10.48;4.97;;;;;;;9.81;51.41;100653.98;4531428;76;28456;-80
2021/10/09 12:29:05;;;;;;;9.50;4.10;;;;;;;10.04;54.69;100632.34;4508046;76;28525;-80
2021/10/09 12:35:14;;;;;;;9.20;4.42;;;;;;;10.51;57.46;100624.51;4548063;76;28471;-81
2021/10/09 12:41:16;;;;;;;10.68;4.42;;;;;;;9.97;50.31;100644.05;4528123;76;28475;-83
2021/10/09 12:47:17;;;;;;;13.75;4.60;;;;;;;9.96;51.30;100640.54;4567977;76;28632;-80
2021/10/09 12:53:19;;;;;;;10.32;5.17;;;;;;;10.03;51.43;100636.06;4532167;76;28472;-79
2021/10/09 12:59:22;;;;;;;10.23;5.47;;;;;;;10.00;50.83;100637.79;4513447;77;28471;-80
2021/10/09 13:05:27;;;;;;;13.05;5.20;;;;;;;9.96;49.56;100625.77;4513649;77;28530;-80
2021/10/09 13:11:32;;;;;;;11.60;5.20;;;;;;;10.13;50.17;100609.40;4540889;76;28441;-76
2021/10/09 13:17:31;;;;;;;13.32;5.83;;;;;;;10.09;48.77;100602.22;4534963;76;28488;-78
2021/10/09 13:23:33;;;;;;;11.65;5.92;;;;;;;10.15;48.00;100620.30;4538635;76;28594;-77
2021/10/09 13:29:35;;;;;;;11.55;6.28;;;;;;;10.07;48.05;100614.20;4535967;76;28471;-79
2021/10/09 13:35:36;;;;;;;15.45;6.10;;;;;;;10.08;48.03;100616.69;4538543;76;28462;-80
2021/10/09 13:41:40;;;;;;;11.35;5.40;;;;;;;10.19;49.39;100600.59;4541293;76;28467;-80
2021/10/09 13:47:44;;;;;;;18.60;5.87;;;;;;;10.07;46.73;100601.59;4541093;76;28483;-77
2021/10/09 13:53:55;;;;;;;14.10;5.95;;;;;;;10.05;46.48;100602.30;4559321;76;28549;-77
2021/10/09 13:59:59;;;;;;;14.68;5.67;;;;;;;10.17;48.26;100601.30;4526022;76;28520;-78
2021/10/09 14:06:02;;;;;;;13.95;5.87;;;;;;;10.10;48.98;100597.20;4545838;76;28509;-80
2021/10/09 14:12:04;;;;;;;11.28;4.97;;;;;;;10.09;48.06;100590.66;4561874;76;28547;-83
2021/10/09 14:18:06;;;;;;;15.10;5.42;;;;;;;10.00;46.34;100589.95;4445248;78;28446;-78
2021/10/09 14:24:09;;;;;;;11.33;5.17;;;;;;;10.00;46.94;100596.14;4420752;78;28905;-76
2021/10/09 14:30:12;;;;;;;10.78;4.95;;;;;;;9.94;46.60;100592.03;4434138;78;28479;-79
2021/10/09 14:36:13;;;;;;;16.12;5.92;;;;;;;9.94;46.62;100583.98;4428597;78;28505;-79
2021/10/09 14:42:15;;;;;;;14.18;4.85;;;;;;;9.89;47.59;100585.88;4431149;78;28532;-79
2021/10/09 14:48:20;;;;;;;10.20;5.08;;;;;;;9.90;48.98;100576.80;4405687;78;28489;-77
2021/10/09 15:19:39;;;;;;;13.00;5.30;;;;;;;9.50;53.68;100582.52;4384479;79;28555;-80
2021/10/09 15:25:43;;;;;;;12.53;4.83;;;;;;;9.42;54.66;100582.08;4385307;79;28563;-79
2021/10/09 15:31:45;;;;;;;10.65;4.70;;;;;;;9.39;56.16;100585.66;4386159;79;28557;-82
2021/10/09 15:37:46;;;;;;;12.37;4.55;;;;;;;9.20;57.48;100587.34;4384118;79;28443;-80
2021/10/09 15:43:48;;;;;;;9.48;4.40;;;;;;;9.10;57.55;100589.46;4372909;79;28580;-78
2021/10/09 15:49:49;;;;;;;10.32;4.55;;;;;;;8.97;59.31;100589.27;4403890;79;28446;-82
2021/10/09 15:55:53;;;;;;;11.15;4.22;;;;;;;8.83;60.35;100589.55;4342835;79;28473;-82
2021/10/09 16:01:54;;;;;;;8.18;3.75;;;;;;;8.70;61.51;100594.21;4358258;79;28457;-84
2021/10/09 16:07:59;;;;;;;9.95;4.42;;;;;;;8.57;62.47;100591.61;4389830;79;28546;-85
2021/10/09 16:14:07;;;;;;;9.60;4.37;;;;;;;8.42;63.48;100596.06;4355054;79;28501;-86
2021/10/09 16:20:10;;;;;;;9.58;4.15;;;;;;;8.33;64.61;100594.77;4340613;80;28481;-84
2021/10/09 16:26:11;;;;;;;12.13;4.05;;;;;;;8.21;65.52;100598.35;4469157;78;28433;-84
2021/10/09 16:32:14;;;;;;;9.20;3.95;;;;;;;8.08;67.33;100598.95;4512519;78;28516;-83
2021/10/09 16:38:15;;;;;;;9.98;4.25;;;;;;;7.95;68.91;100608.89;4496918;77;28568;-81
2021/10/09 16:44:18;;;;;;;11.63;5.53;;;;;;;7.82;70.71;100601.94;4471825;78;28437;-84
2021/10/09 16:50:20;;;;;;;7.83;4.33;;;;;;;7.64;72.92;100606.16;4449615;78;28432;-83
2021/10/09 16:56:21;;;;;;;9.03;4.58;;;;;;;7.59;73.57;100614.71;4456175;78;28458;-84
2021/10/09 17:02:22;;;;;;;8.03;3.95;;;;;;;7.30;83.84;100615.31;4477502;78;28536;-85
2021/10/09 17:08:24;;;;;;;6.65;4.20;;;;;;;6.97;88.77;100613.51;4482632;78;28487;-87
2021/10/09 17:14:28;;;;;;;11.05;4.25;;;;;;;6.69;96.36;100616.55;4441898;77;28498;-84
2021/10/09 17:20:29;;;;;;;10.10;4.35;;;;;;;6.54;96.93;100623.86;4512504;77;28487;-83
2021/10/09 17:26:31;;;;;;;11.85;4.20;;;;;;;6.31;100.00;100623.69;4546271;77;28451;-84
2021/10/09 17:32:32;;;;;;;9.53;4.47;;;;;;;6.01;100.00;100629.91;4509790;76;28502;-84
2021/10/09 17:38:33;;;;;;;15.30;6.05;;;;;;;5.71;100.00;100631.61;4486761;78;28450;-84
2021/10/09 17:44:36;;;;;;;11.48;5.95;;;;;;;5.80;100.00;100624.98;4492935;78;28462;-83
2021/10/09 17:50:38;;;;;;;13.40;5.85;;;;;;;5.89;100.00;100633.36;4462137;78;28440;-84
2021/10/09 17:56:40;;;;;;;12.75;5.72;;;;;;;5.83;100.00;100630.84;4478209;78;28465;-86
2021/10/09 18:02:42;;;;;;;16.35;6.53;;;;;;;5.69;100.00;100624.78;4515492;78;28449;-84
2021/10/09 18:08:44;;;;;;;12.07;5.35;;;;;;;5.52;100.00;100627.36;4499975;78;28452;-87
2021/10/09 18:14:46;;;;;;;11.55;5.25;;;;;;;5.45;100.00;100628.98;4431135;78;28504;-87
2021/10/09 18:20:47;;;;;;;15.72;7.65;;;;;;;5.25;100.00;100629.19;4551904;75;28492;-88
2021/10/09 18:26:49;;;;;;;21.30;9.15;;;;;;;5.28;100.00;100620.05;4510387;76;28527;-87
2021/10/09 18:32:50;;;;;;;21.48;10.15;;;;;;;5.34;100.00;100622.58;4544113;77;28440;-83
2021/10/09 18:38:53;;;;;;;26.62;11.05;;;;;;;5.36;100.00;100621.92;4529450;76;28442;-85
2021/10/09 18:44:55;;;;;;;28.62;11.12;;;;;;;5.35;100.00;100616.25;4536533;76;28493;-87
2021/10/09 18:50:56;;;;;;;28.00;11.75;;;;;;;5.27;100.00;100611.23;4543708;77;28510;-86
2021/10/09 18:56:57;;;;;;;26.27;12.10;;;;;;;5.18;100.00;100616.65;4471451;78;28542;-85
2021/10/09 19:03:01;;;;;;;19.27;9.33;;;;;;;5.16;100.00;100608.31;4495771;78;28532;-85
2021/10/09 19:09:02;;;;;;;23.70;10.40;;;;;;;4.91;100.00;100603.82;4508630;77;28469;-86
2021/10/09 19:15:04;;;;;;;26.93;12.00;;;;;;;4.71;100.00;100602.67;4525934;77;28503;-86
2021/10/09 19:21:06;;;;;;;23.07;10.75;;;;;;;4.74;100.00;100595.69;4511419;77;28483;-88
2021/10/09 19:27:08;;;;;;;27.73;12.15;;;;;;;4.74;100.00;100604.53;4521225;78;28464;-88
2021/10/09 19:33:13;;;;;;;25.90;11.53;;;;;;;4.53;100.00;100601.32;4565040;77;28551;-83
2021/10/09 19:39:16;;;;;;;24.90;12.15;;;;;;;4.38;100.00;100600.54;4536796;78;28514;-88
2021/10/09 19:45:17;;;;;;;27.20;12.93;;;;;;;4.33;100.00;100609.49;4533728;77;28467;-86
2021/10/09 19:51:28;;;;;;;30.70;13.15;;;;;;;4.10;100.00;100602.42;4499328;77;28504;-84
2021/10/09 19:57:38;;;;;;;29.77;13.90;;;;;;;4.08;100.00;100593.76;4496047;77;28499;-83
2021/10/09 20:03:47;;;;;;;31.57;12.98;;;;;;;4.02;100.00;100599.19;4434051;78;28501;-87
2021/10/09 20:15:54;;;;;;;;;;;;;;;4.04;100.00;100593.22;4507113;76;28518;-86
2021/10/09 20:22:01;;;;;;;26.25;13.20;;;;;;;4.00;100.00;100590.49;4517105;76;20162;-86
2021/10/09 20:28:01;;;;;;;33.00;13.95;;;;;;;4.01;100.00;100592.16;4534732;76;28546;-87
2021/10/09 20:34:02;;;;;;;28.45;13.08;;;;;;;4.00;100.00;100594.00;4507868;77;28487;-85
2021/10/09 20:40:05;;;;;;;27.07;13.18;;;;;;;3.84;100.00;100592.00;4495469;76;28442;-86
2021/10/09 20:46:07;;;;;;;30.10;13.78;;;;;;;3.92;100.00;100587.77;4527986;76;28444;-85
2021/10/09 20:52:11;;;;;;;27.22;12.20;;;;;;;3.94;100.00;100589.77;4533434;76;28480;-81
2021/10/09 20:58:15;;;;;;;24.90;11.97;;;;;;;3.84;100.00;100586.67;4527157;77;28508;-87
2021/10/09 21:04:17;;;;;;;25.30;12.33;;;;;;;3.93;100.00;100582.78;4520290;76;28442;-85
2021/10/09 21:10:23;;;;;;;31.12;14.10;;;;;;;3.94;100.00;100581.80;4512951;76;28529;-86
2021/10/09 21:22:51;;;;;;;25.90;13.60;;;;;;;3.77;100.00;100574.94;4531974;76;28546;-85
2021/10/09 21:28:52;;;;;;;29.07;13.45;;;;;;;3.57;100.00;100575.04;4536322;76;28433;-84
2021/10/09 21:34:54;;;;;;;25.23;12.55;;;;;;;3.42;100.00;100572.53;4512210;76;28531;-83
2021/10/09 21:40:57;;;;;;;24.77;12.93;;;;;;;3.27;100.00;100565.52;4521835;76;28462;-83
2021/10/09 21:47:00;;;;;;;25.87;12.67;;;;;;;3.10;100.00;100565.79;4523288;76;28524;-83
2021/10/09 21:53:02;;;;;;;29.10;12.33;;;;;;;3.11;100.00;100558.16;4519382;76;28878;-83
2021/10/09 22:17:51;;;;;;;34.80;14.73;;;;;;;2.98;100.00;100538.54;4520076;76;28522;-83
2021/10/09 22:36:32;;;;;;;32.73;15.58;;;;;;;2.73;100.00;100529.72;4526683;76;28545;-83
2021/10/09 22:42:34;;;;;;;34.20;15.93;;;;;;;2.77;100.00;100526.29;4545433;76;28539;-83
2021/10/09 22:48:36;;;;;;;33.60;16.52;;;;;;;2.70;100.00;100520.72;4559472;76;28641;-83
2021/10/09 22:54:37;;;;;;;37.80;16.95;;;;;;;2.67;100.00;100515.70;4540339;76;28495;-84
2021/10/09 23:00:38;;;;;;;37.83;16.93;;;;;;;2.62;100.00;100516.60;4553336;76;28537;-82
2021/10/09 23:06:40;;;;;;;36.08;16.40;;;;;;;2.45;100.00;100520.83;4531712;76;28457;-81
2021/10/09 23:12:41;;;;;;;38.05;16.95;;;;;;;2.43;100.00;100519.63;4535863;77;28506;-84
2021/10/09 23:18:43;;;;;;;43.75;18.57;;;;;;;2.46;100.00;100516.71;4535374;76;28428;-83
2021/10/09 23:24:44;;;;;;;41.25;18.90;;;;;;;2.48;100.00;100508.11;4525128;76;28551;-84
2021/10/09 23:30:47;;;;;;;38.30;17.80;;;;;;;2.51;100.00;100508.32;4532416;76;28508;-83
2021/10/09 23:36:48;;;;;;;35.17;16.80;;;;;;;2.32;100.00;100502.52;4511991;76;28463;-83
2021/10/09 23:42:50;;;;;;;34.35;16.30;;;;;;;2.25;100.00;100502.25;4502157;76;28554;-84
2021/10/09 23:48:51;;;;;;;34.45;16.55;;;;;;;2.26;100.00;100495.97;4378078;79;28467;-83
2021/10/09 23:54:54;;;;;;;37.60;16.55;;;;;;;2.25;100.00;100496.12;4381191;78;28603;-80
